Time;durP1;ratioP1;P1;durP2;ratioP2;P2;SDS_P1;SDS_P2;PMS_P1;PMS_P2;Temp;Humidity;BMP_temperature;BMP_pressure;BME280_temperature;BME280_humidity;BME280_pressure;Samples;Min_cycle;Max_cycle;Signal;HPM_P1;HPM_P2
2023/07/11 00:01:20;;;;;;;4.88;2.83;;;;;;;21.76;87.12;100240.19;5087656;28;20089;-63
2023/07/11 00:03:45;;;;;;;5.85;2.92;;;;;;;21.80;87.33;100238.97;5072019;28;20630;-63
2023/07/11 00:06:18;;;;;;;6.68;3.78;;;;;;;21.78;87.46;100243.63;5068414;28;20040;-63
2023/07/11 00:08:44;;;;;;;6.43;3.22;;;;;;;21.75;87.32;100236.59;5069227;28;20051;-63
2023/07/11 00:11:11;;;;;;;5.18;2.92;;;;;;;21.73;87.35;100240.41;5068488;28;20504;-63
2023/07/11 00:13:39;;;;;;;6.80;3.65;;;;;;;21.69;87.50;100239.78;5068847;28;20024;-63
2023/07/11 00:16:08;;;;;;;5.45;3.28;;;;;;;21.61;87.55;100227.78;5068737;28;20079;-63
2023/07/11 00:18:34;;;;;;;5.78;3.22;;;;;;;21.59;87.90;100237.84;5060352;28;20025;-63
2023/07/11 00:20:59;;;;;;;5.25;3.10;;;;;;;21.57;87.87;100237.97;5057367;28;20032;-63
2023/07/11 00:23:25;;;;;;;6.38;3.35;;;;;;;21.62;87.79;100233.06;5050754;28;20380;-63
2023/07/11 00:25:51;;;;;;;6.60;3.30;;;;;;;21.59;87.38;100227.91;5068738;28;20032;-63
2023/07/11 00:28:17;;;;;;;7.35;3.47;;;;;;;21.63;87.89;100231.25;5068488;28;20033;-63
2023/07/11 00:30:43;;;;;;;4.93;2.92;;;;;;;21.65;88.35;100229.25;5067363;28;20035;-63
2023/07/11 00:33:09;;;;;;;5.53;3.20;;;;;;;21.56;88.02;100221.84;5067402;28;20027;-63
2023/07/11 00:35:37;;;;;;;6.88;3.25;;;;;;;21.54;88.01;100223.78;5070227;28;20447;-63
2023/07/11 00:38:03;;;;;;;6.53;3.28;;;;;;;21.47;88.15;100227.91;5070779;28;20056;-63
2023/07/11 00:40:28;;;;;;;5.63;3.25;;;;;;;21.42;88.42;100230.97;5069757;28;20641;-62
2023/07/11 00:42:54;;;;;;;7.05;3.20;;;;;;;21.34;88.54;100218.97;5068966;28;20025;-63
2023/07/11 00:45:57;;;;;;;5.68;3.05;;;;;;;21.36;88.76;100225.16;5068524;28;20103;-63
2023/07/11 00:48:23;;;;;;;6.40;3.33;;;;;;;21.35;89.38;100223.44;5070011;28;20027;-63
2023/07/11 00:50:50;;;;;;;7.53;3.17;;;;;;;21.31;89.16;100235.44;5069493;28;20029;-63
2023/07/11 00:53:17;;;;;;;9.32;5.13;;;;;;;21.27;89.50;100236.66;5069741;28;20130;-63
2023/07/11 00:55:44;;;;;;;6.80;3.40;;;;;;;21.20;89.78;100230.84;5068911;28;20024;-63
2023/07/11 00:58:10;;;;;;;5.57;3.38;;;;;;;21.19;89.97;100228.22;5063538;28;20025;-63
2023/07/11 01:00:38;;;;;;;6.85;3.47;;;;;;;21.19;90.73;100229.09;5068785;28;20112;-63
2023/07/11 01:03:04;;;;;;;5.45;3.15;;;;;;;21.16;90.82;100223.91;5063333;28;20053;-63
2023/07/11 01:05:29;;;;;;;6.82;3.67;;;;;;;21.21;90.90;100226.25;5071863;28;20031;-63
2023/07/11 01:07:55;;;;;;;7.40;3.67;;;;;;;21.21;90.98;100229.84;5085775;28;20042;-63
2023/07/11 01:10:20;;;;;;;4.55;2.70;;;;;;;21.18;90.96;100229.19;5091325;28;20024;-63
2023/07/11 01:12:47;;;;;;;6.85;3.40;;;;;;;21.14;91.27;100219.56;5092013;28;20089;-64
2023/07/11 01:15:13;;;;;;;6.45;3.60;;;;;;;21.05;91.54;100220.25;5091805;28;20028;-63
2023/07/11 01:17:38;;;;;;;6.53;2.97;;;;;;;20.99;91.55;100231.50;5090737;28;20364;-63
2023/07/11 01:20:07;;;;;;;6.47;3.20;;;;;;;20.94;92.24;100213.72;5091674;28;20028;-63
2023/07/11 01:22:35;;;;;;;6.10;3.72;;;;;;;20.94;92.37;100223.66;5090760;28;20065;-63
2023/07/11 01:25:05;;;;;;;6.57;3.67;;;;;;;20.89;92.52;100215.91;5091109;28;20113;-63
2023/07/11 01:27:30;;;;;;;5.25;3.50;;;;;;;20.92;93.17;100204.00;5089994;28;20372;-63
2023/07/11 01:29:56;;;;;;;6.30;3.75;;;;;;;20.94;94.54;100196.63;5089557;28;20028;-63
2023/07/11 01:32:21;;;;;;;6.30;3.40;;;;;;;20.79;94.46;100171.56;5089609;28;20024;-63
2023/07/11 01:34:47;;;;;;;6.65;3.58;;;;;;;20.95;95.49;100201.09;5088832;28;20118;-63
2023/07/11 01:37:12;;;;;;;7.65;3.75;;;;;;;20.94;95.45;100199.34;5088656;28;20024;-63
2023/07/11 01:39:38;;;;;;;8.43;3.75;;;;;;;20.92;96.05;100198.59;5088662;28;20093;-63
2023/07/11 01:42:04;;;;;;;6.57;3.45;;;;;;;20.89;95.80;100193.38;5088766;28;20078;-63
2023/07/11 01:44:30;;;;;;;5.53;3.85;;;;;;;20.82;96.50;100192.97;5088220;28;20047;-63
2023/07/11 01:46:56;;;;;;;7.95;3.80;;;;;;;20.83;97.24;100188.44;5089130;28;20089;-63
2023/07/11 01:49:21;;;;;;;7.22;3.50;;;;;;;20.88;97.38;100187.13;5090222;28;20024;-62
2023/07/11 01:51:46;;;;;;;9.02;3.60;;;;;;;20.91;97.64;100188.75;5089185;28;20028;-63
2023/07/11 01:54:13;;;;;;;6.10;3.42;;;;;;;20.87;97.43;100179.97;5089090;28;20043;-63
2023/07/11 01:56:39;;;;;;;10.60;3.83;;;;;;;20.87;97.74;100181.84;5088775;28;20035;-63
2023/07/11 01:59:04;;;;;;;6.97;4.70;;;;;;;20.89;97.40;100172.63;5090044;28;20016;-63
2023/07/11 02:01:30;;;;;;;7.57;4.25;;;;;;;20.89;97.27;100172.63;5089874;28;20395;-63
2023/07/11 02:03:55;;;;;;;6.53;3.53;;;;;;;20.85;97.26;100164.84;5072528;28;20083;-63
2023/07/11 02:06:21;;;;;;;6.75;3.83;;;;;;;20.81;97.37;100164.22;5069178;28;20020;-63
2023/07/11 02:08:47;;;;;;;7.00;3.42;;;;;;;20.77;97.59;100165.38;5070152;28;20035;-63
2023/07/11 02:11:12;;;;;;;9.20;3.38;;;;;;;20.69;97.01;100159.66;5070276;28;20027;-63
2023/07/11 02:13:40;;;;;;;7.30;3.40;;;;;;;20.66;97.35;100159.91;5070630;28;20689;-63
2023/07/11 02:16:06;;;;;;;6.50;3.50;;;;;;;20.68;97.00;100163.38;5069434;28;20029;-63
2023/07/11 02:18:31;;;;;;;8.57;4.03;;;;;;;20.67;96.89;100161.63;5070118;28;20020;-63
2023/07/11 02:20:56;;;;;;;7.68;3.67;;;;;;;20.64;96.52;100153.72;5069610;28;20123;-63
2023/07/11 02:23:22;;;;;;;6.32;3.80;;;;;;;20.60;96.80;100154.94;5069402;28;20043;-63
2023/07/11 02:25:50;;;;;;;6.78;3.35;;;;;;;20.59;96.93;100158.59;5066532;28;20369;-63
2023/07/11 02:28:15;;;;;;;7.80;3.30;;;;;;;20.59;96.57;100152.34;5068596;28;20024;-64
2023/07/11 02:30:41;;;;;;;8.50;3.50;;;;;;;20.46;96.57;100152.34;5058651;28;20029;-64
2023/07/11 02:33:06;;;;;;;6.45;3.35;;;;;;;20.38;96.48;100161.94;5066842;28;20130;-63
2023/07/11 02:35:32;;;;;;;6.97;3.83;;;;;;;20.33;96.77;100159.59;5067503;28;20032;-64
2023/07/11 02:37:57;;;;;;;6.32;3.72;;;;;;;20.32;96.68;100157.88;5066772;28;20111;-64
2023/07/11 02:40:22;;;;;;;5.95;3.60;;;;;;;20.31;97.10;100156.13;5068919;28;20194;-63
2023/07/11 02:42:48;;;;;;;7.97;4.18;;;;;;;20.31;97.63;100153.41;5069083;28;20107;-63
2023/07/11 02:45:14;;;;;;;6.28;4.03;;;;;;;20.30;98.96;100157.09;5069989;28;20075;-63
2023/07/11 02:47:39;;;;;;;6.85;3.70;;;;;;;20.31;99.34;100150.72;5068736;28;20024;-63
2023/07/11 02:50:06;;;;;;;6.13;4.35;;;;;;;20.33;98.98;100137.97;5060287;28;20464;-63
2023/07/11 02:52:34;;;;;;;5.10;3.17;;;;;;;20.32;99.18;100144.34;5049934;28;20029;-63
2023/07/11 02:54:59;;;;;;;6.95;4.13;;;;;;;20.30;99.75;100135.50;5056460;28;20056;-63
2023/07/11 02:57:25;;;;;;;5.93;3.55;;;;;;;20.30;99.81;100138.19;5066777;28;20020;-63
2023/07/11 02:59:50;;;;;;;7.60;3.85;;;;;;;20.26;99.85;100138.53;5065372;28;20645;-63
2023/07/11 03:02:15;;;;;;;6.95;4.07;;;;;;;20.25;100.00;100137.66;5061400;28;20046;-63
2023/07/11 03:04:41;;;;;;;10.18;3.83;;;;;;;20.25;100.00;100143.06;5088747;28;20093;-63
2023/07/11 03:07:06;;;;;;;7.22;3.83;;;;;;;20.20;100.00;100134.41;5085118;28;20035;-63
2023/07/11 03:09:34;;;;;;;6.93;3.63;;;;;;;20.24;100.00;100140.47;5089183;28;20560;-63
2023/07/11 03:11:59;;;;;;;7.47;3.83;;;;;;;20.23;100.00;100136.88;5088474;28;20529;-62
2023/07/11 03:14:24;;;;;;;5.93;3.80;;;;;;;20.22;100.00;100132.47;5089848;28;20024;-63
2023/07/11 03:16:51;;;;;;;7.15;3.80;;;;;;;20.19;100.00;100127.28;5089361;28;20036;-63
2023/07/11 03:19:19;;;;;;;7.45;4.25;;;;;;;20.14;100.00;100123.13;5088877;28;20016;-63
2023/07/11 03:21:45;;;;;;;9.52;3.85;;;;;;;20.16;100.00;100121.22;5087569;28;20043;-63
2023/07/11 03:24:10;;;;;;;5.53;3.30;;;;;;;20.15;100.00;100124.88;5087513;28;20027;-63
2023/07/11 03:26:36;;;;;;;8.18;4.10;;;;;;;20.11;100.00;100118.81;5086732;28;20024;-62
2023/07/11 03:29:02;;;;;;;9.77;4.28;;;;;;;20.09;100.00;100123.47;5087813;28;20032;-63
2023/07/11 03:31:27;;;;;;;5.82;3.83;;;;;;;20.08;100.00;100113.59;5086163;28;20029;-63
2023/07/11 03:33:52;;;;;;;9.05;3.85;;;;;;;20.08;100.00;100118.16;5087348;28;20050;-63
2023/07/11 03:36:19;;;;;;;7.80;3.95;;;;;;;20.07;100.00;100111.88;5088642;28;20032;-63
2023/07/11 03:38:46;;;;;;;8.75;4.00;;;;;;;20.06;100.00;100118.28;5088190;28;20047;-63
2023/07/11 03:41:12;;;;;;;7.25;4.22;;;;;;;20.05;100.00;100110.28;5089302;28;20032;-63
2023/07/11 03:43:38;;;;;;;6.78;4.72;;;;;;;20.05;100.00;100116.53;5088391;28;20133;-63
2023/07/11 03:46:03;;;;;;;9.52;4.10;;;;;;;20.05;100.00;100110.28;5088465;28;20035;-63
2023/07/11 03:48:29;;;;;;;7.40;4.07;;;;;;;20.04;100.00;100108.53;5086465;28;20035;-63
2023/07/11 03:50:55;;;;;;;24.65;4.65;;;;;;;20.04;100.00;100106.72;5085150;28;20055;-63
2023/07/11 03:53:20;;;;;;;6.95;3.38;;;;;;;20.07;100.00;100111.00;5085532;28;20036;-62
2023/07/11 03:55:46;;;;;;;12.23;3.90;;;;;;;20.10;100.00;100111.66;5087159;28;20050;-63
2023/07/11 03:58:11;;;;;;;8.07;3.53;;;;;;;20.14;100.00;100112.31;5087299;28;20051;-63
2023/07/11 04:00:36;;;;;;;6.07;3.70;;;;;;;20.15;100.00;100108.69;5088152;28;20034;-63
2023/07/11 04:03:02;;;;;;;8.52;3.72;;;;;;;20.14;100.00;100109.63;5087305;28;20131;-63
2023/07/11 04:05:28;;;;;;;6.57;3.47;;;;;;;20.08;100.00;100102.81;5088363;28;20351;-63
2023/07/11 04:07:54;;;;;;;6.32;3.50;;;;;;;20.08;100.00;100108.22;5087863;28;20107;-63
2023/07/11 04:10:19;;;;;;;6.20;3.45;;;;;;;20.06;100.00;100110.16;5091854;28;20039;-63
2023/07/11 04:12:45;;;;;;;6.60;3.75;;;;;;;20.06;99.70;100114.69;5090208;28;20089;-63
2023/07/11 04:15:10;;;;;;;7.25;4.55;;;;;;;20.07;100.00;100111.88;5090925;28;20040;-63
2023/07/11 04:17:36;;;;;;;7.78;3.92;;;;;;;20.15;99.45;100117.66;5089188;28;20032;-63
2023/07/11 04:20:02;;;;;;;7.07;3.80;;;;;;;20.21;99.24;100111.84;5084768;28;20012;-63
2023/07/11 04:22:29;;;;;;;6.80;4.15;;;;;;;20.27;99.33;100116.78;5069381;28;20035;-63
2023/07/11 04:24:54;;;;;;;6.60;3.65;;;;;;;20.30;98.66;100113.88;5075335;28;20397;-63
2023/07/11 04:27:20;;;;;;;6.63;3.97;;;;;;;20.40;98.24;100104.16;5078411;28;20111;-63
2023/07/11 04:29:45;;;;;;;6.07;3.97;;;;;;;20.46;97.84;100101.00;5069069;28;20062;-63
2023/07/11 04:32:10;;;;;;;6.88;4.10;;;;;;;20.48;97.69;100101.75;5088796;28;20773;-63
2023/07/11 04:34:36;;;;;;;6.97;3.63;;;;;;;20.52;97.63;100103.28;5091664;28;20102;-63
2023/07/11 04:37:01;;;;;;;8.13;3.92;;;;;;;20.51;97.91;100092.56;5092257;28;20031;-63
2023/07/11 04:39:27;;;;;;;9.13;4.45;;;;;;;20.60;97.95;100103.59;5089968;28;20101;-63
2023/07/11 04:41:52;;;;;;;21.83;5.00;;;;;;;20.66;98.07;100108.53;5091457;28;20756;-63
2023/07/11 04:44:17;;;;;;;7.65;4.80;;;;;;;20.70;98.11;100101.06;5091334;28;20032;-63
2023/07/11 04:46:43;;;;;;;7.50;4.45;;;;;;;20.72;97.86;100099.13;5088088;28;20099;-63
2023/07/11 04:49:08;;;;;;;9.00;4.53;;;;;;;20.74;97.68;100092.63;5091715;28;20024;-64
2023/07/11 04:51:34;;;;;;;11.27;4.40;;;;;;;20.75;98.27;100094.38;5091077;28;20020;-63
2023/07/11 04:53:59;;;;;;;7.90;4.47;;;;;;;20.82;97.80;100095.63;5091633;28;20111;-63
2023/07/11 04:56:24;;;;;;;7.45;4.72;;;;;;;20.86;98.12;100085.44;5091338;28;20313;-63
2023/07/11 04:58:50;;;;;;;10.18;4.82;;;;;;;20.98;97.45;100091.84;5091757;28;20032;-63
2023/07/11 05:01:19;;;;;;;9.05;4.00;;;;;;;21.09;97.93;100097.34;5077715;28;20040;-63
2023/07/11 05:03:45;;;;;;;10.90;5.18;;;;;;;21.20;97.55;100091.97;5091309;28;20058;-63
2023/07/11 05:06:14;;;;;;;8.02;4.93;;;;;;;21.28;97.13;100098.53;5091608;28;20129;-63
2023/07/11 05:08:40;;;;;;;8.73;5.00;;;;;;;21.39;96.73;100095.00;5090977;28;20024;-63
2023/07/11 05:11:18;;;;;;;8.77;4.38;;;;;;;21.53;96.43;100092.13;5086034;28;20043;-64
2023/07/11 05:13:45;;;;;;;8.02;4.30;;;;;;;21.65;96.44;100097.47;5080221;28;20027;-63
2023/07/11 05:16:17;;;;;;;11.07;5.38;;;;;;;21.82;96.21;100094.38;5088159;28;20103;-63
2023/07/11 05:18:43;;;;;;;8.85;5.05;;;;;;;21.95;95.27;100100.56;5088195;28;20020;-63
2023/07/11 05:21:11;;;;;;;8.70;4.80;;;;;;;22.11;95.43;100086.66;5077682;28;20098;-63
2023/07/11 05:23:37;;;;;;;8.45;4.75;;;;;;;22.35;93.90;100094.69;5087129;28;20032;-63
2023/07/11 05:26:04;;;;;;;8.07;4.80;;;;;;;22.43;91.95;100084.09;5083708;28;20027;-63
2023/07/11 05:28:30;;;;;;;9.80;4.80;;;;;;;22.55;90.75;100091.28;5078949;28;20032;-63
2023/07/11 05:30:56;;;;;;;7.70;4.60;;;;;;;22.58;89.45;100083.78;5085322;28;20031;-63
2023/07/11 05:33:22;;;;;;;7.15;4.40;;;;;;;22.71;87.39;100086.34;5080932;28;20341;-63
2023/07/11 05:35:59;;;;;;;7.10;4.05;;;;;;;22.78;86.30;100088.47;5082591;28;20038;-63
2023/07/11 05:38:25;;;;;;;7.68;4.53;;;;;;;22.89;85.75;100082.13;5089616;28;20058;-63
2023/07/11 05:40:51;;;;;;;6.90;4.55;;;;;;;22.96;85.43;100086.94;5089127;28;20020;-63
2023/07/11 05:43:16;;;;;;;6.03;4.35;;;;;;;23.03;84.96;100080.00;5084320;28;20446;-63
2023/07/11 05:45:45;;;;;;;8.80;4.78;;;;;;;23.10;83.61;100075.81;5084239;28;20028;-63
2023/07/11 05:48:10;;;;;;;7.53;4.50;;;;;;;23.19;82.73;100075.06;5077547;28;20082;-63
2023/07/11 05:50:36;;;;;;;11.88;4.05;;;;;;;23.30;82.20;100072.31;5088666;28;20032;-63
2023/07/11 05:53:01;;;;;;;9.07;4.00;;;;;;;23.42;81.91;100070.44;5088869;28;20035;-63
2023/07/11 05:55:26;;;;;;;7.50;4.72;;;;;;;23.50;81.09;100070.66;5080751;28;20066;-63
2023/07/11 05:57:52;;;;;;;9.63;4.25;;;;;;;23.50;80.73;100062.50;5086447;28;20058;-63
2023/07/11 06:00:19;;;;;;;6.68;4.07;;;;;;;23.62;80.49;100066.91;5089003;28;20546;-63
2023/07/11 06:02:45;;;;;;;10.20;5.13;;;;;;;23.66;79.93;100073.78;5081191;28;20055;-63
2023/07/11 06:05:10;;;;;;;8.52;5.15;;;;;;;23.68;79.85;100074.50;5075764;28;20032;-63
2023/07/11 06:07:36;;;;;;;8.23;4.93;;;;;;;23.87;78.65;100073.81;5085644;28;20055;-63
2023/07/11 06:10:02;;;;;;;7.53;4.38;;;;;;;24.05;78.06;100074.97;5086589;28;20042;-63
2023/07/11 06:12:27;;;;;;;7.47;4.15;;;;;;;24.22;77.03;100066.16;5084660;28;20545;-63
2023/07/11 06:14:52;;;;;;;6.18;4.38;;;;;;;24.31;76.35;100070.81;5086287;28;20543;-63
2023/07/11 06:17:18;;;;;;;9.02;4.60;;;;;;;24.43;76.15;100064.28;5084564;28;20035;-63
2023/07/11 06:19:43;;;;;;;7.93;4.27;;;;;;;24.61;75.43;100062.66;5086530;28;20916;-63
2023/07/11 06:22:09;;;;;;;8.68;4.20;;;;;;;24.78;73.93;100064.72;5078418;28;20447;-63
2023/07/11 06:24:36;;;;;;;7.57;4.82;;;;;;;24.92;71.97;100056.19;5087824;28;20023;-63
2023/07/11 06:27:02;;;;;;;7.65;4.10;;;;;;;25.08;70.24;100055.63;5085104;28;20111;-63
2023/07/11 06:29:29;;;;;;;6.68;4.20;;;;;;;25.04;68.87;100044.16;5087277;28;20099;-63
2023/07/11 06:31:55;;;;;;;5.85;3.75;;;;;;;25.28;69.87;100057.41;5070993;28;20028;-63
2023/07/11 06:34:20;;;;;;;8.82;4.40;;;;;;;25.36;68.75;100052.13;5080199;28;20714;-62
2023/07/11 06:36:46;;;;;;;7.00;4.30;;;;;;;25.54;68.03;100059.47;5086237;28;20035;-63
2023/07/11 06:39:11;;;;;;;7.55;3.90;;;;;;;25.74;66.64;100049.41;5077343;28;20020;-63
2023/07/11 06:41:38;;;;;;;6.70;3.40;;;;;;;25.92;66.37;100056.69;5080893;28;20356;-64
2023/07/11 06:44:06;;;;;;;8.07;3.85;;;;;;;26.02;67.67;100055.84;5077702;28;20042;-61
2023/07/11 06:46:32;;;;;;;9.32;3.97;;;;;;;26.18;66.61;100053.38;5080810;28;20028;-60
2023/07/11 06:48:58;;;;;;;6.80;3.50;;;;;;;26.30;65.45;100063.09;5085229;28;20103;-60
2023/07/11 06:51:23;;;;;;;7.15;4.13;;;;;;;26.44;65.10;100059.91;5077155;28;20112;-60
2023/07/11 06:53:49;;;;;;;7.03;3.92;;;;;;;26.57;64.67;100060.44;5083161;28;20038;-60
2023/07/11 06:56:14;;;;;;;7.63;4.32;;;;;;;26.67;62.76;100067.56;5083184;28;20024;-60
2023/07/11 06:58:40;;;;;;;6.10;3.92;;;;;;;26.77;62.85;100062.09;5082667;28;20035;-59
2023/07/11 07:01:06;;;;;;;8.85;3.92;;;;;;;26.95;61.85;100060.28;5084430;28;20035;-60
2023/07/11 07:03:33;;;;;;;10.80;4.78;;;;;;;27.01;61.94;100049.59;5073083;28;20066;-60
2023/07/11 07:06:02;;;;;;;6.32;3.60;;;;;;;27.10;62.40;100058.72;5086192;28;20487;-59
2023/07/11 07:08:28;;;;;;;8.25;3.80;;;;;;;27.35;61.18;100063.47;5086037;28;20028;-60
2023/07/11 07:10:54;;;;;;;6.63;3.47;;;;;;;27.55;61.53;100054.09;5086496;28;20066;-60
2023/07/11 07:13:21;;;;;;;6.95;3.83;;;;;;;27.78;60.11;100052.59;5084612;28;20047;-60
2023/07/11 07:15:49;;;;;;;9.23;4.32;;;;;;;27.79;58.87;100054.31;5070808;28;20070;-59
2023/07/11 07:18:15;;;;;;;6.88;3.95;;;;;;;27.93;59.67;100051.06;5082176;28;20046;-60
2023/07/11 07:20:41;;;;;;;8.68;3.90;;;;;;;28.24;59.71;100048.69;5077268;28;20060;-60
2023/07/11 07:23:08;;;;;;;7.07;4.32;;;;;;;28.38;56.96;100050.84;5086467;28;20088;-60
2023/07/11 07:25:33;;;;;;;6.68;3.90;;;;;;;28.41;57.25;100036.84;5081014;28;20043;-60
2023/07/11 07:27:59;;;;;;;8.65;4.22;;;;;;;28.64;57.17;100038.03;5068909;28;20037;-60
2023/07/11 07:30:24;;;;;;;7.75;4.05;;;;;;;28.98;56.22;100040.75;5072703;28;20506;-61
2023/07/11 07:32:49;;;;;;;7.35;4.00;;;;;;;29.34;56.31;100036.75;5088727;28;20196;-61
2023/07/11 07:35:15;;;;;;;6.90;4.28;;;;;;;29.81;54.98;100046.06;5088979;28;20429;-61
2023/07/11 07:37:40;;;;;;;6.88;4.00;;;;;;;29.96;51.09;100038.00;5081150;28;20033;-60
2023/07/11 07:40:06;;;;;;;7.00;3.83;;;;;;;30.04;52.62;100046.22;5077519;28;20503;-60
2023/07/11 07:42:32;;;;;;;8.05;4.25;;;;;;;30.37;52.25;100037.81;5078462;28;20107;-60
2023/07/11 07:44:57;;;;;;;8.32;3.80;;;;;;;30.73;51.00;100039.06;5082097;28;20062;-60
2023/07/11 07:47:23;;;;;;;8.85;3.85;;;;;;;30.64;50.98;100028.28;5072353;28;20119;-60
2023/07/11 07:49:48;;;;;;;7.45;4.07;;;;;;;30.42;51.03;100021.66;5084566;28;20058;-61
2023/07/11 07:52:14;;;;;;;7.40;4.03;;;;;;;30.89;50.77;100024.41;5092014;28;20020;-61
2023/07/11 07:54:39;;;;;;;7.65;4.00;;;;;;;30.94;48.70;100026.63;5079399;28;20024;-60
2023/07/11 07:57:05;;;;;;;8.02;4.63;;;;;;;31.62;48.27;100024.84;5071310;28;20421;-60
2023/07/11 07:59:30;;;;;;;6.65;3.75;;;;;;;32.10;49.33;100018.94;5077971;28;20089;-60
2023/07/11 08:01:56;;;;;;;6.85;4.00;;;;;;;32.20;46.35;100016.78;5089239;28;20031;-60
2023/07/11 08:04:22;;;;;;;6.38;4.18;;;;;;;32.21;46.56;100018.47;5090567;28;20112;-60
2023/07/11 08:06:47;;;;;;;8.70;4.80;;;;;;;31.87;47.59;100023.63;5089633;28;20688;-60
2023/07/11 08:09:12;;;;;;;10.57;3.83;;;;;;;31.73;46.98;100017.00;5086693;28;20024;-60
2023/07/11 08:11:38;;;;;;;7.18;4.63;;;;;;;32.02;47.68;100011.63;5068583;28;20028;-60
2023/07/11 08:14:03;;;;;;;7.10;3.80;;;;;;;32.33;46.78;100008.72;5081460;28;20035;-60
2023/07/11 08:16:29;;;;;;;8.57;4.00;;;;;;;32.29;46.83;100007.38;5084502;28;20027;-60
2023/07/11 08:18:55;;;;;;;5.50;3.63;;;;;;;32.90;45.66;99998.75;5091296;28;20016;-61
2023/07/11 08:21:21;;;;;;;6.25;3.53;;;;;;;33.23;43.37;99991.72;5075501;28;20021;-60
2023/07/11 08:23:46;;;;;;;6.25;3.40;;;;;;;33.46;43.72;99990.75;5080484;28;20415;-60
2023/07/11 08:26:12;;;;;;;7.75;3.58;;;;;;;33.58;43.22;99994.66;5083319;28;20028;-60
2023/07/11 08:28:37;;;;;;;6.22;3.42;;;;;;;33.10;43.88;99996.25;5089324;28;20044;-60
2023/07/11 08:31:04;;;;;;;6.78;3.78;;;;;;;33.16;43.68;99988.03;5090526;28;20447;-61
2023/07/11 08:33:30;;;;;;;8.88;3.85;;;;;;;33.27;43.33;99984.78;5081235;28;20059;-60
2023/07/11 08:35:56;;;;;;;7.90;3.90;;;;;;;33.85;43.39;99985.59;5090031;28;20075;-60
2023/07/11 08:38:23;;;;;;;9.25;3.72;;;;;;;34.27;42.97;99985.50;5089767;28;20020;-61
2023/07/11 08:40:49;;;;;;;8.55;4.05;;;;;;;34.53;43.13;99980.19;5076634;28;20100;-60
2023/07/11 08:43:29;;;;;;;8.65;3.53;;;;;;;33.74;42.39;99975.94;5080039;28;20119;-61
2023/07/11 08:46:05;;;;;;;4.70;3.33;;;;;;;34.00;42.57;99969.81;5070232;28;20028;-61
2023/07/11 08:48:42;;;;;;;5.82;3.80;;;;;;;34.15;42.88;99965.03;5088183;28;20043;-61
2023/07/11 08:51:36;;;;;;;6.80;3.80;;;;;;;34.67;42.84;99959.84;5085268;28;20513;-61
2023/07/11 08:54:05;;;;;;;8.02;3.95;;;;;;;34.92;42.65;99958.28;5088835;28;20379;-61
2023/07/11 08:56:43;;;;;;;10.63;3.85;;;;;;;35.48;40.84;99954.19;5070863;28;20020;-61
2023/07/11 08:59:37;;;;;;;7.00;4.07;;;;;;;35.83;40.66;99952.91;5079617;28;20112;-62
2023/07/11 09:02:08;;;;;;;7.85;4.22;;;;;;;36.05;40.73;99949.97;5076354;28;20687;-62
2023/07/11 09:04:38;;;;;;;7.85;4.60;;;;;;;36.04;41.61;99942.72;5075708;28;20380;-61
2023/07/11 09:07:10;;;;;;;5.82;4.28;;;;;;;36.23;40.55;99945.44;5068196;28;20028;-62
2023/07/11 09:09:35;;;;;;;7.00;4.32;;;;;;;36.30;40.12;99946.28;5068467;28;20765;-62
2023/07/11 09:12:26;;;;;;;6.05;3.90;;;;;;;36.49;40.41;99936.25;5073428;28;20032;-62
2023/07/11 09:15:16;;;;;;;8.77;4.72;;;;;;;36.79;40.17;99937.44;5087311;28;20024;-62
2023/07/11 09:17:54;;;;;;;9.30;4.55;;;;;;;37.02;39.69;99939.69;5070465;28;20070;-62
2023/07/11 09:20:32;;;;;;;6.47;4.00;;;;;;;37.20;38.45;99942.56;5072703;28;20337;-62
2023/07/11 09:23:19;;;;;;;7.05;3.70;;;;;;;37.20;38.28;99934.25;5088286;28;20032;-62
2023/07/11 09:25:46;;;;;;;6.03;4.00;;;;;;;37.22;38.59;99930.16;5076900;28;20023;-62
2023/07/11 09:28:22;;;;;;;8.60;4.22;;;;;;;37.52;38.60;99927.63;5085703;28;20549;-62
2023/07/11 09:30:58;;;;;;;8.13;4.15;;;;;;;37.41;38.54;99922.81;5078205;28;20024;-62
2023/07/11 09:33:28;;;;;;;7.68;4.57;;;;;;;37.12;37.55;99915.91;5072750;28;20039;-61
2023/07/11 09:35:54;;;;;;;8.20;3.95;;;;;;;37.30;37.65;99907.72;5070181;28;20036;-62
2023/07/11 09:38:54;;;;;;;6.20;4.22;;;;;;;37.60;38.35;99919.00;5076344;28;20114;-62
2023/07/11 09:41:29;;;;;;;7.63;4.13;;;;;;;37.83;38.59;99903.47;5077759;28;20021;-62
2023/07/11 09:43:55;;;;;;;7.00;4.25;;;;;;;38.05;38.31;99901.97;5089048;28;20031;-62
2023/07/11 09:46:22;;;;;;;7.15;4.10;;;;;;;38.15;37.75;99907.88;5089874;28;20024;-62
2023/07/11 09:48:51;;;;;;;6.18;3.58;;;;;;;38.09;37.09;99897.63;5074584;28;20040;-62
2023/07/11 09:51:39;;;;;;;5.55;3.33;;;;;;;38.06;37.38;99898.09;5068471;28;20036;-62
2023/07/11 09:54:20;;;;;;;7.35;4.13;;;;;;;38.30;37.23;99899.16;5079162;28;20027;-62
2023/07/11 09:56:48;;;;;;;6.63;4.00;;;;;;;38.42;36.52;99902.03;5081070;28;20027;-62
2023/07/11 09:59:15;;;;;;;6.97;4.60;;;;;;;38.34;35.79;99894.81;5067679;28;20024;-62
2023/07/11 10:01:41;;;;;;;6.97;3.78;;;;;;;38.47;36.82;99904.97;5076918;28;20047;-62
2023/07/11 10:04:15;;;;;;;8.00;4.22;;;;;;;38.68;37.29;99898.94;5079894;28;20136;-62
2023/07/11 10:07:03;;;;;;;7.50;4.43;;;;;;;38.67;35.96;99891.66;5078525;28;20070;-62
2023/07/11 10:09:44;;;;;;;5.45;3.38;;;;;;;38.79;37.42;99884.22;5075520;28;20024;-62
2023/07/11 10:12:18;;;;;;;6.85;4.40;;;;;;;39.29;35.86;99889.28;5076628;28;20108;-62
2023/07/11 10:14:52;;;;;;;6.20;4.00;;;;;;;39.27;35.63;99885.03;5087266;28;20031;-62
2023/07/11 10:17:20;;;;;;;8.88;4.30;;;;;;;39.55;36.24;99874.13;5079497;28;20040;-62
2023/07/11 10:20:11;;;;;;;6.32;3.65;;;;;;;39.59;34.53;99877.28;5071069;28;20077;-62
2023/07/11 10:22:37;;;;;;;6.95;3.70;;;;;;;39.65;35.70;99879.94;5080935;28;20094;-62
2023/07/11 10:25:15;;;;;;;5.82;3.50;;;;;;;39.24;36.43;99883.56;5075400;28;20161;-62
2023/07/11 10:27:42;;;;;;;6.13;3.58;;;;;;;39.38;36.12;99881.44;5070196;28;20024;-62
2023/07/11 10:30:19;;;;;;;8.00;3.80;;;;;;;39.53;36.42;99865.16;5076751;28;20028;-62
2023/07/11 10:32:56;;;;;;;7.97;3.90;;;;;;;39.11;35.14;99864.28;5068898;28;20135;-61
2023/07/11 10:35:23;;;;;;;5.55;3.40;;;;;;;38.96;36.77;99865.81;5071388;28;20495;-61
2023/07/11 10:38:09;;;;;;;15.18;9.77;;;;;;;39.00;37.45;99853.09;5087120;28;20076;-62
2023/07/11 10:40:40;;;;;;;10.88;6.25;;;;;;;39.67;35.59;99849.91;5071326;28;20020;-61
2023/07/11 10:43:23;;;;;;;10.43;4.82;;;;;;;40.15;34.91;99847.72;5068873;28;20024;-62
2023/07/11 10:45:53;;;;;;;6.40;3.92;;;;;;;40.06;34.55;99846.41;5072320;28;20396;-61
2023/07/11 10:48:21;;;;;;;10.63;7.45;;;;;;;40.00;34.98;99846.53;5072254;28;20665;-61
2023/07/11 10:51:01;;;;;;;7.55;3.92;;;;;;;40.43;34.37;99842.22;5082000;28;20166;-61
2023/07/11 10:53:33;;;;;;;8.93;3.95;;;;;;;40.82;34.53;99840.56;5081519;28;20038;-61
2023/07/11 10:56:05;;;;;;;7.10;3.05;;;;;;;40.88;33.00;99830.31;5070934;28;20021;-61
2023/07/11 10:58:32;;;;;;;5.93;3.95;;;;;;;40.16;33.82;99817.91;5067877;28;20325;-61
2023/07/11 11:01:24;;;;;;;5.65;3.40;;;;;;;39.93;35.70;99818.81;5072436;28;20519;-61
2023/07/11 11:03:55;;;;;;;6.22;3.90;;;;;;;40.08;35.30;99810.78;5082677;28;20524;-61
2023/07/11 11:06:30;;;;;;;8.48;3.53;;;;;;;40.62;33.82;99801.06;5069796;28;20051;-61
2023/07/11 11:09:18;;;;;;;5.32;3.47;;;;;;;40.97;33.13;99798.13;5072759;28;20028;-61
2023/07/11 11:11:47;;;;;;;6.40;3.92;;;;;;;41.01;31.58;99794.56;5077530;28;20739;-60
2023/07/11 11:14:22;;;;;;;4.82;3.40;;;;;;;41.31;31.81;99783.97;5076092;28;20028;-61
2023/07/11 11:17:23;;;;;;;5.13;2.80;;;;;;;41.11;32.16;99783.59;5069320;28;20481;-60
2023/07/11 11:20:21;;;;;;;6.57;3.67;;;;;;;41.32;31.85;99785.63;5068699;28;20811;-60
2023/07/11 11:23:11;;;;;;;6.95;3.25;;;;;;;41.19;32.47;99779.56;5078380;28;20074;-60
2023/07/11 11:26:01;;;;;;;6.20;3.30;;;;;;;41.50;30.69;99776.16;5086749;28;20538;-60
2023/07/11 11:28:39;;;;;;;5.78;3.20;;;;;;;40.91;30.39;99774.03;5079574;28;20027;-61
2023/07/11 11:31:19;;;;;;;4.82;2.95;;;;;;;41.29;31.47;99774.13;5077868;28;20032;-60
2023/07/11 11:34:07;;;;;;;5.13;3.00;;;;;;;41.50;30.88;99765.00;5083650;28;20132;-60